sensor_id;sensor_type;location;lat;lon;timestamp;temperature;humidity
14008;DHT22;61651;45.508;12.232;2023-04-20T00:02:52;17.70;99.90
14008;DHT22;61651;45.508;12.232;2023-04-20T00:05:54;17.70;99.90
14008;DHT22;61651;45.508;12.232;2023-04-20T00:08:56;17.60;99.90
14008;DHT22;61651;45.508;12.232;2023-04-20T00:11:58;17.60;99.90
14008;DHT22;61651;45.508;12.232;2023-04-20T00:15:03;17.60;99.90
14008;DHT22;61651;45.508;12.232;2023-04-20T00:18:05;17.60;99.90
14008;DHT22;61651;45.508;12.232;2023-04-20T00:21:07;17.60;99.90
14008;DHT22;61651;45.508;12.232;2023-04-20T00:24:09;17.60;99.90
14008;DHT22;61651;45.508;12.232;2023-04-20T00:27:11;17.60;99.90
14008;DHT22;61651;45.508;12.232;2023-04-20T00:30:15;17.60;99.90
14008;DHT22;61651;45.508;12.232;2023-04-20T00:33:17;17.60;99.90
14008;DHT22;61651;45.508;12.232;2023-04-20T00:36:19;17.50;99.90
14008;DHT22;61651;45.508;12.232;2023-04-20T00:39:21;17.50;99.90
14008;DHT22;61651;45.508;12.232;2023-04-20T00:42:23;17.60;99.90
14008;DHT22;61651;45.508;12.232;2023-04-20T00:45:26;17.60;99.90
14008;DHT22;61651;45.508;12.232;2023-04-20T00:48:28;17.60;99.90
14008;DHT22;61651;45.508;12.232;2023-04-20T00:51:30;17.50;99.90
14008;DHT22;61651;45.508;12.232;2023-04-20T00:54:33;17.40;99.90
14008;DHT22;61651;45.508;12.232;2023-04-20T00:57:36;17.50;99.90
14008;DHT22;61651;45.508;12.232;2023-04-20T01:00:40;17.50;99.90
14008;DHT22;61651;45.508;12.232;2023-04-20T01:03:44;17.50;99.90
14008;DHT22;61651;45.508;12.232;2023-04-20T01:06:46;17.50;99.90
14008;DHT22;61651;45.508;12.232;2023-04-20T01:09:48;17.50;99.90
14008;DHT22;61651;45.508;12.232;2023-04-20T01:12:50;17.50;99.90
14008;DHT22;61651;45.508;12.232;2023-04-20T01:15:56;17.50;99.90
14008;DHT22;61651;45.508;12.232;2023-04-20T01:18:59;17.50;99.90
14008;DHT22;61651;45.508;12.232;2023-04-20T01:22:01;17.50;99.90
14008;DHT22;61651;45.508;12.232;2023-04-20T01:25:06;17.50;99.90
14008;DHT22;61651;45.508;12.232;2023-04-20T01:28:08;17.50;99.90
14008;DHT22;61651;45.508;12.232;2023-04-20T01:31:12;17.40;99.90
14008;DHT22;61651;45.508;12.232;2023-04-20T01:34:14;17.40;99.90
14008;DHT22;61651;45.508;12.232;2023-04-20T01:37:17;17.40;99.90
14008;DHT22;61651;45.508;12.232;2023-04-20T01:40:20;17.40;99.90
14008;DHT22;61651;45.508;12.232;2023-04-20T01:43:22;17.40;99.90
14008;DHT22;61651;45.508;12.232;2023-04-20T01:46:24;17.40;99.90
14008;DHT22;61651;45.508;12.232;2023-04-20T01:49:26;17.40;99.90
14008;DHT22;61651;45.508;12.232;2023-04-20T01:52:28;17.40;99.90
14008;DHT22;61651;45.508;12.232;2023-04-20T01:55:32;17.40;99.90
14008;DHT22;61651;45.508;12.232;2023-04-20T01:58:35;17.20;99.90
14008;DHT22;61651;45.508;12.232;2023-04-20T02:01:37;17.10;99.90
14008;DHT22;61651;45.508;12.232;2023-04-20T02:04:39;17.10;99.90
14008;DHT22;61651;45.508;12.232;2023-04-20T02:07:41;17.20;99.90
14008;DHT22;61651;45.508;12.232;2023-04-20T02:10:44;17.10;99.90
14008;DHT22;61651;45.508;12.232;2023-04-20T02:13:46;17.10;99.90
14008;DHT22;61651;45.508;12.232;2023-04-20T02:16:48;17.10;99.90
14008;DHT22;61651;45.508;12.232;2023-04-20T02:19:52;17.00;99.90
14008;DHT22;61651;45.508;12.232;2023-04-20T02:22:54;17.00;99.90
14008;DHT22;61651;45.508;12.232;2023-04-20T02:25:58;17.00;99.90
14008;DHT22;61651;45.508;12.232;2023-04-20T02:29:00;17.00;99.90
14008;DHT22;61651;45.508;12.232;2023-04-20T02:32:02;17.00;99.90
14008;DHT22;61651;45.508;12.232;2023-04-20T02:35:05;17.00;99.90
14008;DHT22;61651;45.508;12.232;2023-04-20T02:38:07;17.00;99.90
14008;DHT22;61651;45.508;12.232;2023-04-20T02:41:10;17.00;99.90
14008;DHT22;61651;45.508;12.232;2023-04-20T02:44:12;17.00;99.90
14008;DHT22;61651;45.508;12.232;2023-04-20T02:47:14;17.00;99.90
14008;DHT22;61651;45.508;12.232;2023-04-20T02:50:16;17.00;99.90
14008;DHT22;61651;45.508;12.232;2023-04-20T02:53:18;17.00;99.90
14008;DHT22;61651;45.508;12.232;2023-04-20T02:56:21;16.90;99.90
14008;DHT22;61651;45.508;12.232;2023-04-20T02:59:23;16.90;99.90
14008;DHT22;61651;45.508;12.232;2023-04-20T03:02:25;16.90;99.90
14008;DHT22;61651;45.508;12.232;2023-04-20T03:05:27;16.90;99.90
14008;DHT22;61651;45.508;12.232;2023-04-20T03:08:29;16.70;99.90
14008;DHT22;61651;45.508;12.232;2023-04-20T03:11:32;16.30;99.90
14008;DHT22;61651;45.508;12.232;2023-04-20T03:14:34;16.20;99.90
14008;DHT22;61651;45.508;12.232;2023-04-20T03:17:37;16.00;99.90
14008;DHT22;61651;45.508;12.232;2023-04-20T03:20:39;15.70;99.90
14008;DHT22;61651;45.508;12.232;2023-04-20T03:23:40;15.80;99.90
14008;DHT22;61651;45.508;12.232;2023-04-20T03:26:44;15.80;99.90
14008;DHT22;61651;45.508;12.232;2023-04-20T03:29:46;16.00;99.90
14008;DHT22;61651;45.508;12.232;2023-04-20T03:32:48;16.20;99.90
14008;DHT22;61651;45.508;12.232;2023-04-20T03:35:50;16.40;99.90
14008;DHT22;61651;45.508;12.232;2023-04-20T03:38:52;16.50;99.90
14008;DHT22;61651;45.508;12.232;2023-04-20T03:41:55;16.60;99.90
14008;DHT22;61651;45.508;12.232;2023-04-20T03:44:57;16.70;99.90
14008;DHT22;61651;45.508;12.232;2023-04-20T03:47:59;16.70;99.90
14008;DHT22;61651;45.508;12.232;2023-04-20T03:51:01;16.70;99.90
14008;DHT22;61651;45.508;12.232;2023-04-20T03:54:03;16.70;99.90
14008;DHT22;61651;45.508;12.232;2023-04-20T03:57:07;16.70;99.90
14008;DHT22;61651;45.508;12.232;2023-04-20T04:00:10;16.70;99.90
14008;DHT22;61651;45.508;12.232;2023-04-20T04:03:13;16.70;99.90
14008;DHT22;61651;45.508;12.232;2023-04-20T04:06:15;16.70;99.90
14008;DHT22;61651;45.508;12.232;2023-04-20T04:09:16;16.70;99.90
14008;DHT22;61651;45.508;12.232;2023-04-20T04:12:20;16.70;99.90
14008;DHT22;61651;45.508;12.232;2023-04-20T04:15:22;16.70;99.90
14008;DHT22;61651;45.508;12.232;2023-04-20T04:18:24;16.60;99.90
14008;DHT22;61651;45.508;12.232;2023-04-20T04:21:29;16.60;99.90
14008;DHT22;61651;45.508;12.232;2023-04-20T04:24:31;16.60;99.90
14008;DHT22;61651;45.508;12.232;2023-04-20T04:27:34;16.60;99.90
14008;DHT22;61651;45.508;12.232;2023-04-20T04:30:37;16.60;99.90
14008;DHT22;61651;45.508;12.232;2023-04-20T04:33:40;16.50;99.90
14008;DHT22;61651;45.508;12.232;2023-04-20T04:36:42;16.40;99.90
14008;DHT22;61651;45.508;12.232;2023-04-20T04:39:43;16.40;99.90
14008;DHT22;61651;45.508;12.232;2023-04-20T04:42:47;16.40;99.90
14008;DHT22;61651;45.508;12.232;2023-04-20T04:45:49;16.40;99.90
14008;DHT22;61651;45.508;12.232;2023-04-20T04:48:51;16.40;99.90
14008;DHT22;61651;45.508;12.232;2023-04-20T04:51:53;16.40;99.90
14008;DHT22;61651;45.508;12.232;2023-04-20T04:54:55;16.40;99.90
14008;DHT22;61651;45.508;12.232;2023-04-20T04:57:58;16.30;99.90
14008;DHT22;61651;45.508;12.232;2023-04-20T05:01:01;16.30;99.90
14008;DHT22;61651;45.508;12.232;2023-04-20T05:04:03;16.30;99.90
14008;DHT22;61651;45.508;12.232;2023-04-20T05:07:05;16.20;99.90
14008;DHT22;61651;45.508;12.232;2023-04-20T05:10:07;16.20;99.90
14008;DHT22;61651;45.508;12.232;2023-04-20T05:13:11;16.30;99.90
14008;DHT22;61651;45.508;12.232;2023-04-20T05:16:13;16.30;99.90
14008;DHT22;61651;45.508;12.232;2023-04-20T05:19:15;16.40;99.90
14008;DHT22;61651;45.508;12.232;2023-04-20T05:22:16;16.40;99.90
14008;DHT22;61651;45.508;12.232;2023-04-20T05:25:18;16.40;99.90
14008;DHT22;61651;45.508;12.232;2023-04-20T05:28:22;16.40;99.90
14008;DHT22;61651;45.508;12.232;2023-04-20T05:31:24;16.50;99.90
14008;DHT22;61651;45.508;12.232;2023-04-20T05:34:26;16.50;99.90
14008;DHT22;61651;45.508;12.232;2023-04-20T05:37:28;16.50;99.90
14008;DHT22;61651;45.508;12.232;2023-04-20T05:40:30;16.60;99.90
14008;DHT22;61651;45.508;12.232;2023-04-20T05:43:35;16.70;99.90
14008;DHT22;61651;45.508;12.232;2023-04-20T05:46:37;16.70;99.90
14008;DHT22;61651;45.508;12.232;2023-04-20T05:49:38;16.70;99.90
14008;DHT22;61651;45.508;12.232;2023-04-20T05:52:40;16.70;99.90
14008;DHT22;61651;45.508;12.232;2023-04-20T05:55:42;16.80;99.90
14008;DHT22;61651;45.508;12.232;2023-04-20T05:58:46;16.80;99.90
14008;DHT22;61651;45.508;12.232;2023-04-20T06:01:49;16.80;99.90
14008;DHT22;61651;45.508;12.232;2023-04-20T06:04:51;16.90;99.90
14008;DHT22;61651;45.508;12.232;2023-04-20T06:07:53;16.90;99.90
14008;DHT22;61651;45.508;12.232;2023-04-20T06:10:55;16.90;99.90
14008;DHT22;61651;45.508;12.232;2023-04-20T06:13:59;16.90;99.90
14008;DHT22;61651;45.508;12.232;2023-04-20T06:17:01;16.90;99.90
14008;DHT22;61651;45.508;12.232;2023-04-20T06:20:04;17.00;99.90
14008;DHT22;61651;45.508;12.232;2023-04-20T06:23:07;17.00;99.90
14008;DHT22;61651;45.508;12.232;2023-04-20T06:26:09;17.10;99.90
14008;DHT22;61651;45.508;12.232;2023-04-20T06:29:12;17.20;99.90
14008;DHT22;61651;45.508;12.232;2023-04-20T06:32:14;17.20;99.90
14008;DHT22;61651;45.508;12.232;2023-04-20T06:35:16;17.20;99.90
14008;DHT22;61651;45.508;12.232;2023-04-20T06:38:18;17.30;99.90
14008;DHT22;61651;45.508;12.232;2023-04-20T06:41:20;17.30;99.90
14008;DHT22;61651;45.508;12.232;2023-04-20T06:44:23;17.30;99.90
14008;DHT22;61651;45.508;12.232;2023-04-20T06:47:25;17.30;99.90
14008;DHT22;61651;45.508;12.232;2023-04-20T06:50:31;17.30;99.90
14008;DHT22;61651;45.508;12.232;2023-04-20T06:53:33;17.30;99.90
14008;DHT22;61651;45.508;12.232;2023-04-20T06:56:35;17.30;99.90
14008;DHT22;61651;45.508;12.232;2023-04-20T06:59:38;17.30;99.90
14008;DHT22;61651;45.508;12.232;2023-04-20T07:02:44;17.30;99.90
14008;DHT22;61651;45.508;12.232;2023-04-20T07:05:47;17.30;99.90
14008;DHT22;61651;45.508;12.232;2023-04-20T07:08:49;17.30;99.90
14008;DHT22;61651;45.508;12.232;2023-04-20T07:11:50;17.40;99.90
14008;DHT22;61651;45.508;12.232;2023-04-20T07:14:54;17.40;99.90
14008;DHT22;61651;45.508;12.232;2023-04-20T07:17:56;17.50;99.90
14008;DHT22;61651;45.508;12.232;2023-04-20T07:20:58;17.60;99.90
14008;DHT22;61651;45.508;12.232;2023-04-20T07:24:00;17.70;99.90
14008;DHT22;61651;45.508;12.232;2023-04-20T07:27:02;17.70;99.90
14008;DHT22;61651;45.508;12.232;2023-04-20T07:30:08;17.70;99.90
14008;DHT22;61651;45.508;12.232;2023-04-20T07:33:10;17.70;99.90
14008;DHT22;61651;45.508;12.232;2023-04-20T07:36:12;17.70;99.90
14008;DHT22;61651;45.508;12.232;2023-04-20T07:39:14;17.80;99.90
14008;DHT22;61651;45.508;12.232;2023-04-20T07:42:16;17.80;99.90
14008;DHT22;61651;45.508;12.232;2023-04-20T07:45:19;17.90;99.90
14008;DHT22;61651;45.508;12.232;2023-04-20T07:48:22;17.90;99.90
14008;DHT22;61651;45.508;12.232;2023-04-20T07:51:24;17.90;99.90
14008;DHT22;61651;45.508;12.232;2023-04-20T07:54:26;18.00;99.90
14008;DHT22;61651;45.508;12.232;2023-04-20T07:57:28;18.00;99.90
14008;DHT22;61651;45.508;12.232;2023-04-20T08:00:31;18.00;99.90
14008;DHT22;61651;45.508;12.232;2023-04-20T08:03:33;18.10;99.90
14008;DHT22;61651;45.508;12.232;2023-04-20T08:06:36;18.10;99.90
14008;DHT22;61651;45.508;12.232;2023-04-20T08:09:37;18.20;99.90
14008;DHT22;61651;45.508;12.232;2023-04-20T08:12:39;18.20;99.90
14008;DHT22;61651;45.508;12.232;2023-04-20T08:15:43;18.20;99.90
14008;DHT22;61651;45.508;12.232;2023-04-20T08:18:45;18.30;99.90
14008;DHT22;61651;45.508;12.232;2023-04-20T08:21:47;18.30;99.90
14008;DHT22;61651;45.508;12.232;2023-04-20T08:24:49;18.30;99.90
14008;DHT22;61651;45.508;12.232;2023-04-20T08:27:51;18.30;99.90
14008;DHT22;61651;45.508;12.232;2023-04-20T08:30:54;18.30;99.90
14008;DHT22;61651;45.508;12.232;2023-04-20T08:33:56;18.30;99.90
14008;DHT22;61651;45.508;12.232;2023-04-20T08:36:58;18.40;99.90
14008;DHT22;61651;45.508;12.232;2023-04-20T08:40:00;18.40;99.90
14008;DHT22;61651;45.508;12.232;2023-04-20T08:43:02;18.60;99.90
14008;DHT22;61651;45.508;12.232;2023-04-20T08:46:06;18.70;99.90
14008;DHT22;61651;45.508;12.232;2023-04-20T08:49:10;18.80;99.90
14008;DHT22;61651;45.508;12.232;2023-04-20T08:52:13;18.80;99.90
14008;DHT22;61651;45.508;12.232;2023-04-20T08:55:15;18.90;99.90
14008;DHT22;61651;45.508;12.232;2023-04-20T08:58:17;19.00;99.90
14008;DHT22;61651;45.508;12.232;2023-04-20T09:01:27;19.10;99.90
14008;DHT22;61651;45.508;12.232;2023-04-20T09:04:29;19.20;99.90
14008;DHT22;61651;45.508;12.232;2023-04-20T09:07:31;19.40;99.90
14008;DHT22;61651;45.508;12.232;2023-04-20T09:10:39;19.50;99.90
14008;DHT22;61651;45.508;12.232;2023-04-20T09:13:41;19.60;99.90
14008;DHT22;61651;45.508;12.232;2023-04-20T09:16:52;19.70;99.90
14008;DHT22;61651;45.508;12.232;2023-04-20T09:19:56;19.80;99.90
14008;DHT22;61651;45.508;12.232;2023-04-20T09:23:10;19.90;99.90
14008;DHT22;61651;45.508;12.232;2023-04-20T09:26:16;20.10;99.90
14008;DHT22;61651;45.508;12.232;2023-04-20T09:29:21;20.20;99.90
14008;DHT22;61651;45.508;12.232;2023-04-20T09:32:27;20.30;99.90
14008;DHT22;61651;45.508;12.232;2023-04-20T09:35:29;20.30;99.90
14008;DHT22;61651;45.508;12.232;2023-04-20T09:38:31;20.30;99.90
14008;DHT22;61651;45.508;12.232;2023-04-20T09:41:34;20.20;99.90
14008;DHT22;61651;45.508;12.232;2023-04-20T09:44:37;20.20;99.90
14008;DHT22;61651;45.508;12.232;2023-04-20T09:47:41;20.20;99.90
14008;DHT22;61651;45.508;12.232;2023-04-20T09:50:43;20.10;99.90
14008;DHT22;61651;45.508;12.232;2023-04-20T09:53:46;20.20;99.90
14008;DHT22;61651;45.508;12.232;2023-04-20T09:56:49;20.10;99.90
14008;DHT22;61651;45.508;12.232;2023-04-20T09:59:52;20.00;99.90
14008;DHT22;61651;45.508;12.232;2023-04-20T10:02:56;19.90;99.90
14008;DHT22;61651;45.508;12.232;2023-04-20T10:05:59;19.70;99.90
14008;DHT22;61651;45.508;12.232;2023-04-20T10:09:02;19.60;99.90
14008;DHT22;61651;45.508;12.232;2023-04-20T10:12:05;19.50;99.90
14008;DHT22;61651;45.508;12.232;2023-04-20T10:15:08;19.50;99.90
14008;DHT22;61651;45.508;12.232;2023-04-20T10:18:22;19.60;99.90
14008;DHT22;61651;45.508;12.232;2023-04-20T10:21:24;19.60;99.90
14008;DHT22;61651;45.508;12.232;2023-04-20T10:24:28;19.50;99.90
14008;DHT22;61651;45.508;12.232;2023-04-20T10:27:30;19.40;99.90
14008;DHT22;61651;45.508;12.232;2023-04-20T10:30:33;19.50;99.90
14008;DHT22;61651;45.508;12.232;2023-04-20T10:33:50;19.40;99.90
14008;DHT22;61651;45.508;12.232;2023-04-20T10:36:53;19.50;99.90
14008;DHT22;61651;45.508;12.232;2023-04-20T10:39:55;19.50;99.90
14008;DHT22;61651;45.508;12.232;2023-04-20T10:42:57;19.50;99.90
14008;DHT22;61651;45.508;12.232;2023-04-20T10:45:59;19.50;99.90
14008;DHT22;61651;45.508;12.232;2023-04-20T10:49:02;19.50;99.90
14008;DHT22;61651;45.508;12.232;2023-04-20T10:52:04;19.50;99.90
14008;DHT22;61651;45.508;12.232;2023-04-20T10:55:19;19.50;99.90
14008;DHT22;61651;45.508;12.232;2023-04-20T10:58:22;19.50;99.90
14008;DHT22;61651;45.508;12.232;2023-04-20T11:01:24;19.50;99.90
14008;DHT22;61651;45.508;12.232;2023-04-20T11:04:30;19.50;99.90
14008;DHT22;61651;45.508;12.232;2023-04-20T11:07:33;19.50;99.90
14008;DHT22;61651;45.508;12.232;2023-04-20T11:10:40;19.60;99.90
14008;DHT22;61651;45.508;12.232;2023-04-20T11:13:42;19.60;99.90
14008;DHT22;61651;45.508;12.232;2023-04-20T11:16:51;19.50;99.90
14008;DHT22;61651;45.508;12.232;2023-04-20T11:20:03;19.50;99.90
14008;DHT22;61651;45.508;12.232;2023-04-20T11:23:06;19.50;99.90
14008;DHT22;61651;45.508;12.232;2023-04-20T11:26:08;19.40;99.90
14008;DHT22;61651;45.508;12.232;2023-04-20T11:29:10;19.50;99.90
14008;DHT22;61651;45.508;12.232;2023-04-20T11:32:12;19.40;99.90
14008;DHT22;61651;45.508;12.232;2023-04-20T11:35:20;19.40;99.90
14008;DHT22;61651;45.508;12.232;2023-04-20T11:38:32;19.50;99.90
14008;DHT22;61651;45.508;12.232;2023-04-20T11:41:35;19.70;99.90
14008;DHT22;61651;45.508;12.232;2023-04-20T11:44:38;19.70;99.90
14008;DHT22;61651;45.508;12.232;2023-04-20T11:47:40;19.70;99.90
14008;DHT22;61651;45.508;12.232;2023-04-20T11:50:44;19.60;99.90
14008;DHT22;61651;45.508;12.232;2023-04-20T11:53:46;19.60;99.90
14008;DHT22;61651;45.508;12.232;2023-04-20T11:56:48;19.40;99.90
14008;DHT22;61651;45.508;12.232;2023-04-20T11:59:50;19.40;99.90
14008;DHT22;61651;45.508;12.232;2023-04-20T12:02:52;19.20;99.90
14008;DHT22;61651;45.508;12.232;2023-04-20T12:05:55;19.10;99.90
14008;DHT22;61651;45.508;12.232;2023-04-20T12:08:58;19.20;99.90
14008;DHT22;61651;45.508;12.232;2023-04-20T12:12:00;19.30;99.90
14008;DHT22;61651;45.508;12.232;2023-04-20T12:15:03;19.40;99.90
14008;DHT22;61651;45.508;12.232;2023-04-20T12:18:05;19.40;99.90
14008;DHT22;61651;45.508;12.232;2023-04-20T12:21:08;19.50;99.90
14008;DHT22;61651;45.508;12.232;2023-04-20T12:24:10;19.50;99.90
14008;DHT22;61651;45.508;12.232;2023-04-20T12:27:12;19.50;99.90
14008;DHT22;61651;45.508;12.232;2023-04-20T12:30:14;19.30;99.90
14008;DHT22;61651;45.508;12.232;2023-04-20T12:33:16;19.20;99.90
14008;DHT22;61651;45.508;12.232;2023-04-20T12:36:21;19.20;99.90
14008;DHT22;61651;45.508;12.232;2023-04-20T12:39:26;19.00;99.90
14008;DHT22;61651;45.508;12.232;2023-04-20T12:42:30;19.00;99.90
14008;DHT22;61651;45.508;12.232;2023-04-20T12:45:33;18.90;99.90
14008;DHT22;61651;45.508;12.232;2023-04-20T12:48:36;19.00;99.90
14008;DHT22;61651;45.508;12.232;2023-04-20T12:51:39;19.00;99.90
14008;DHT22;61651;45.508;12.232;2023-04-20T12:54:41;19.10;99.90
14008;DHT22;61651;45.508;12.232;2023-04-20T12:57:43;19.00;99.90
14008;DHT22;61651;45.508;12.232;2023-04-20T13:00:46;19.00;99.90
14008;DHT22;61651;45.508;12.232;2023-04-20T13:03:49;19.10;99.90
14008;DHT22;61651;45.508;12.232;2023-04-20T13:06:53;19.00;99.90
14008;DHT22;61651;45.508;12.232;2023-04-20T13:09:55;19.00;99.90
14008;DHT22;61651;45.508;12.232;2023-04-20T13:12:57;18.90;99.90
14008;DHT22;61651;45.508;12.232;2023-04-20T13:15:59;18.80;99.90
14008;DHT22;61651;45.508;12.232;2023-04-20T13:19:01;18.70;99.90
14008;DHT22;61651;45.508;12.232;2023-04-20T13:22:05;18.60;99.90
14008;DHT22;61651;45.508;12.232;2023-04-20T13:25:08;18.50;99.90
14008;DHT22;61651;45.508;12.232;2023-04-20T13:28:10;18.60;99.90
14008;DHT22;61651;45.508;12.232;2023-04-20T13:31:12;18.70;99.90
14008;DHT22;61651;45.508;12.232;2023-04-20T13:34:14;18.70;99.90
14008;DHT22;61651;45.508;12.232;2023-04-20T13:37:18;19.10;99.90
14008;DHT22;61651;45.508;12.232;2023-04-20T13:40:20;19.30;99.90
14008;DHT22;61651;45.508;12.232;2023-04-20T13:43:22;19.30;99.90
14008;DHT22;61651;45.508;12.232;2023-04-20T13:46:25;19.40;99.90
14008;DHT22;61651;45.508;12.232;2023-04-20T13:49:27;19.40;99.90
14008;DHT22;61651;45.508;12.232;2023-04-20T13:52:30;19.40;99.90
14008;DHT22;61651;45.508;12.232;2023-04-20T13:55:32;19.40;99.90
14008;DHT22;61651;45.508;12.232;2023-04-20T13:58:35;19.50;99.90
14008;DHT22;61651;45.508;12.232;2023-04-20T14:01:37;19.40;99.90
14008;DHT22;61651;45.508;12.232;2023-04-20T14:04:39;19.30;99.90
14008;DHT22;61651;45.508;12.232;2023-04-20T14:07:43;19.20;99.90
14008;DHT22;61651;45.508;12.232;2023-04-20T14:10:45;19.20;99.90
14008;DHT22;61651;45.508;12.232;2023-04-20T14:13:47;19.20;99.90
14008;DHT22;61651;45.508;12.232;2023-04-20T14:16:49;19.20;99.90
14008;DHT22;61651;45.508;12.232;2023-04-20T14:19:51;19.00;99.90
14008;DHT22;61651;45.508;12.232;2023-04-20T14:22:55;19.10;99.90
14008;DHT22;61651;45.508;12.232;2023-04-20T14:25:57;19.00;99.90
14008;DHT22;61651;45.508;12.232;2023-04-20T14:28:59;19.10;99.90
14008;DHT22;61651;45.508;12.232;2023-04-20T14:32:02;19.10;99.90
14008;DHT22;61651;45.508;12.232;2023-04-20T14:35:04;19.20;99.90
14008;DHT22;61651;45.508;12.232;2023-04-20T14:38:10;19.30;99.90
14008;DHT22;61651;45.508;12.232;2023-04-20T14:41:12;19.10;99.90
14008;DHT22;61651;45.508;12.232;2023-04-20T14:44:14;19.10;99.90
14008;DHT22;61651;45.508;12.232;2023-04-20T14:47:16;19.00;99.90
14008;DHT22;61651;45.508;12.232;2023-04-20T14:50:18;19.00;99.90
14008;DHT22;61651;45.508;12.232;2023-04-20T14:53:21;19.00;99.90
14008;DHT22;61651;45.508;12.232;2023-04-20T14:56:23;18.90;99.90
14008;DHT22;61651;45.508;12.232;2023-04-20T14:59:25;18.90;99.90
14008;DHT22;61651;45.508;12.232;2023-04-20T15:02:27;18.80;99.90
14008;DHT22;61651;45.508;12.232;2023-04-20T15:05:29;19.00;99.90
14008;DHT22;61651;45.508;12.232;2023-04-20T15:08:33;19.50;99.90
14008;DHT22;61651;45.508;12.232;2023-04-20T15:11:36;19.70;99.90
14008;DHT22;61651;45.508;12.232;2023-04-20T15:14:38;19.70;99.90
14008;DHT22;61651;45.508;12.232;2023-04-20T15:17:40;19.80;99.90
14008;DHT22;61651;45.508;12.232;2023-04-20T15:20:42;19.90;99.90
14008;DHT22;61651;45.508;12.232;2023-04-20T15:23:45;20.20;99.90
14008;DHT22;61651;45.508;12.232;2023-04-20T15:26:47;20.20;99.90
14008;DHT22;61651;45.508;12.232;2023-04-20T15:29:50;20.10;99.90
14008;DHT22;61651;45.508;12.232;2023-04-20T15:32:52;20.10;99.90
14008;DHT22;61651;45.508;12.232;2023-04-20T15:35:54;20.10;99.90
14008;DHT22;61651;45.508;12.232;2023-04-20T15:38:57;20.20;99.90
14008;DHT22;61651;45.508;12.232;2023-04-20T15:41:59;20.30;99.90
14008;DHT22;61651;45.508;12.232;2023-04-20T15:45:02;20.20;99.90
14008;DHT22;61651;45.508;12.232;2023-04-20T15:48:04;20.30;99.90
14008;DHT22;61651;45.508;12.232;2023-04-20T15:51:06;20.50;99.90
14008;DHT22;61651;45.508;12.232;2023-04-20T15:54:10;20.40;99.90
14008;DHT22;61651;45.508;12.232;2023-04-20T15:57:12;20.40;99.90
14008;DHT22;61651;45.508;12.232;2023-04-20T16:00:15;20.30;99.90
14008;DHT22;61651;45.508;12.232;2023-04-20T16:03:17;20.10;99.90
14008;DHT22;61651;45.508;12.232;2023-04-20T16:06:19;20.10;99.90
14008;DHT22;61651;45.508;12.232;2023-04-20T16:09:23;19.80;99.90
14008;DHT22;61651;45.508;12.232;2023-04-20T16:12:25;19.80;99.90
14008;DHT22;61651;45.508;12.232;2023-04-20T16:15:27;19.60;99.90
14008;DHT22;61651;45.508;12.232;2023-04-20T16:18:29;19.50;99.90
14008;DHT22;61651;45.508;12.232;2023-04-20T16:21:31;19.40;99.90
14008;DHT22;61651;45.508;12.232;2023-04-20T16:24:35;19.40;99.90
14008;DHT22;61651;45.508;12.232;2023-04-20T16:27:37;19.40;99.90
14008;DHT22;61651;45.508;12.232;2023-04-20T16:30:39;19.30;99.90
14008;DHT22;61651;45.508;12.232;2023-04-20T16:33:41;19.10;99.90
14008;DHT22;61651;45.508;12.232;2023-04-20T16:36:43;19.10;99.90
14008;DHT22;61651;45.508;12.232;2023-04-20T16:39:47;19.00;99.90
14008;DHT22;61651;45.508;12.232;2023-04-20T16:42:49;18.90;99.90
14008;DHT22;61651;45.508;12.232;2023-04-20T16:45:51;19.00;99.90
14008;DHT22;61651;45.508;12.232;2023-04-20T16:48:53;19.00;99.90
14008;DHT22;61651;45.508;12.232;2023-04-20T16:51:55;19.00;99.90
14008;DHT22;61651;45.508;12.232;2023-04-20T16:54:58;19.00;99.90
14008;DHT22;61651;45.508;12.232;2023-04-20T16:58:00;18.90;99.90
14008;DHT22;61651;45.508;12.232;2023-04-20T17:01:02;18.80;99.90
14008;DHT22;61651;45.508;12.232;2023-04-20T17:04:04;18.60;99.90
14008;DHT22;61651;45.508;12.232;2023-04-20T17:07:06;18.50;99.90
14008;DHT22;61651;45.508;12.232;2023-04-20T17:10:10;18.60;99.90
14008;DHT22;61651;45.508;12.232;2023-04-20T17:13:13;18.50;99.90
14008;DHT22;61651;45.508;12.232;2023-04-20T17:16:16;18.50;99.90
14008;DHT22;61651;45.508;12.232;2023-04-20T17:19:21;18.50;99.90
14008;DHT22;61651;45.508;12.232;2023-04-20T17:22:24;18.40;99.90
14008;DHT22;61651;45.508;12.232;2023-04-20T17:25:28;18.30;99.90
14008;DHT22;61651;45.508;12.232;2023-04-20T17:28:30;18.20;99.90
14008;DHT22;61651;45.508;12.232;2023-04-20T17:31:32;18.10;99.90
14008;DHT22;61651;45.508;12.232;2023-04-20T17:34:34;18.10;99.90
14008;DHT22;61651;45.508;12.232;2023-04-20T17:37:36;18.10;99.90
14008;DHT22;61651;45.508;12.232;2023-04-20T17:40:39;18.10;99.90
14008;DHT22;61651;45.508;12.232;2023-04-20T17:43:41;18.10;99.90
14008;DHT22;61651;45.508;12.232;2023-04-20T17:46:43;18.10;99.90
14008;DHT22;61651;45.508;12.232;2023-04-20T17:49:45;18.00;99.90
14008;DHT22;61651;45.508;12.232;2023-04-20T17:52:47;17.90;99.90
14008;DHT22;61651;45.508;12.232;2023-04-20T17:55:50;17.80;99.90
14008;DHT22;61651;45.508;12.232;2023-04-20T17:58:52;17.80;99.90
14008;DHT22;61651;45.508;12.232;2023-04-20T18:01:54;17.80;99.90
14008;DHT22;61651;45.508;12.232;2023-04-20T18:04:56;17.80;99.90
14008;DHT22;61651;45.508;12.232;2023-04-20T18:08:00;17.80;99.90
14008;DHT22;61651;45.508;12.232;2023-04-20T18:11:04;17.70;99.90
14008;DHT22;61651;45.508;12.232;2023-04-20T18:14:07;17.60;99.90
14008;DHT22;61651;45.508;12.232;2023-04-20T18:17:09;17.60;99.90
14008;DHT22;61651;45.508;12.232;2023-04-20T18:20:11;17.60;99.90
14008;DHT22;61651;45.508;12.232;2023-04-20T18:23:13;17.60;99.90
14008;DHT22;61651;45.508;12.232;2023-04-20T18:26:16;17.60;99.90
14008;DHT22;61651;45.508;12.232;2023-04-20T18:29:19;17.60;99.90
14008;DHT22;61651;45.508;12.232;2023-04-20T18:32:21;17.60;99.90
14008;DHT22;61651;45.508;12.232;2023-04-20T18:35:23;17.60;99.90
14008;DHT22;61651;45.508;12.232;2023-04-20T18:38:25;17.50;99.90
14008;DHT22;61651;45.508;12.232;2023-04-20T18:41:29;17.50;99.90
14008;DHT22;61651;45.508;12.232;2023-04-20T18:44:31;17.50;99.90
14008;DHT22;61651;45.508;12.232;2023-04-20T18:47:33;17.50;99.90
14008;DHT22;61651;45.508;12.232;2023-04-20T18:50:35;17.50;99.90
14008;DHT22;61651;45.508;12.232;2023-04-20T18:53:37;17.50;99.90
14008;DHT22;61651;45.508;12.232;2023-04-20T18:56:40;17.50;99.90